Time;durP1;ratioP1;P1;durP2;ratioP2;P2;SDS_P1;SDS_P2;PMS_P1;PMS_P2;Temp;Humidity;BMP_temperature;BMP_pressure;BME280_temperature;BME280_humidity;BME280_pressure;Samples;Min_cycle;Max_cycle;Signal;HPM_P1;HPM_P2
2023/06/01 00:00:10;;;;;;;23.10;13.88;;;;;;;11.25;100.00;102157.88;5096093;28;20436;-45
2023/06/01 00:02:36;;;;;;;20.45;13.93;;;;;;;11.23;100.00;102149.16;5095784;28;20057;-46
2023/06/01 00:05:01;;;;;;;20.38;14.27;;;;;;;11.18;100.00;102156.69;5096267;28;20020;-46
2023/06/01 00:07:29;;;;;;;25.73;14.98;;;;;;;11.05;100.00;102150.03;5096139;28;20054;-48
2023/06/01 00:09:55;;;;;;;21.83;15.25;;;;;;;10.97;100.00;102152.25;5095803;28;20024;-46
2023/06/01 00:12:20;;;;;;;24.63;15.43;;;;;;;10.91;100.00;102151.97;5095660;28;20032;-46
2023/06/01 00:14:45;;;;;;;26.77;15.65;;;;;;;10.85;100.00;102152.53;5096325;28;20107;-45
2023/06/01 00:17:10;;;;;;;25.35;15.60;;;;;;;10.79;100.00;102157.38;5095699;28;20103;-48
2023/06/01 00:19:38;;;;;;;25.35;15.68;;;;;;;10.73;100.00;102146.78;5095324;28;20052;-44
2023/06/01 00:22:04;;;;;;;23.30;15.55;;;;;;;10.68;100.00;102146.53;5096005;28;20387;-45
2023/06/01 00:24:29;;;;;;;25.58;16.00;;;;;;;10.63;100.00;102145.44;5095078;28;20024;-46
2023/06/01 00:26:55;;;;;;;21.58;15.63;;;;;;;10.59;100.00;102147.75;5095928;28;20044;-45
2023/06/01 00:29:21;;;;;;;29.05;16.50;;;;;;;10.53;100.00;102144.09;5095805;28;20112;-45
2023/06/01 00:31:46;;;;;;;21.55;15.98;;;;;;;10.46;100.00;102152.31;5095514;28;20093;-47
2023/06/01 00:34:11;;;;;;;23.42;16.20;;;;;;;10.40;100.00;102146.84;5095616;28;20028;-44
2023/06/01 00:36:37;;;;;;;24.73;16.25;;;;;;;10.32;100.00;102148.13;5095500;28;20484;-45
2023/06/01 00:39:03;;;;;;;23.75;16.55;;;;;;;10.24;100.00;102150.28;5095290;28;20031;-44
2023/06/01 00:41:29;;;;;;;23.23;17.23;;;;;;;10.21;100.00;102156.19;5095486;28;20051;-46
2023/06/01 00:43:55;;;;;;;25.38;17.15;;;;;;;10.17;100.00;102148.19;5095766;28;20046;-44
2023/06/01 00:46:20;;;;;;;24.55;17.20;;;;;;;10.08;100.00;102145.13;5094843;28;20020;-44
2023/06/01 00:48:46;;;;;;;27.63;18.13;;;;;;;10.04;100.00;102146.66;5095483;28;20028;-44
2023/06/01 00:51:12;;;;;;;27.15;17.27;;;;;;;10.01;100.00;102146.50;5095887;28;20017;-47
2023/06/01 00:53:37;;;;;;;26.67;18.25;;;;;;;9.95;100.00;102141.91;5094464;28;20459;-44
2023/06/01 00:56:03;;;;;;;30.23;18.08;;;;;;;9.91;100.00;102139.97;5095356;28;20108;-48
2023/06/01 00:58:29;;;;;;;22.77;18.02;;;;;;;9.84;100.00;102148.19;5095155;28;20040;-46
2023/06/01 01:00:55;;;;;;;26.92;18.58;;;;;;;9.78;100.00;102146.16;5094891;28;20032;-48
2023/06/01 01:03:21;;;;;;;26.38;17.73;;;;;;;9.74;100.00;102154.53;5094819;28;20020;-44
2023/06/01 01:05:47;;;;;;;25.95;18.63;;;;;;;9.68;100.00;102152.53;5094647;28;20471;-46
2023/06/01 01:08:27;;;;;;;29.63;19.00;;;;;;;9.65;100.00;102152.34;5094841;28;20032;-44
2023/06/01 01:11:04;;;;;;;28.23;19.10;;;;;;;9.56;100.00;102157.00;5095121;28;20032;-45
2023/06/01 01:13:50;;;;;;;28.48;19.92;;;;;;;9.55;100.00;102161.25;5094197;28;20020;-45
2023/06/01 01:16:20;;;;;;;27.90;19.92;;;;;;;9.50;100.00;102167.84;5094778;28;20063;-46
2023/06/01 01:18:54;;;;;;;30.40;20.60;;;;;;;9.46;100.00;102162.44;5094764;28;20052;-44
2023/06/01 01:21:27;;;;;;;28.70;20.25;;;;;;;9.41;100.00;102161.28;5094393;28;20043;-44
2023/06/01 01:24:11;;;;;;;30.10;20.00;;;;;;;9.39;100.00;102156.06;5094862;28;20051;-48
2023/06/01 01:27:10;;;;;;;29.15;20.00;;;;;;;9.36;100.00;102158.44;5094489;28;20383;-45
2023/06/01 01:29:37;;;;;;;33.33;20.77;;;;;;;9.26;100.00;102156.16;5094199;28;20392;-49
2023/06/01 01:32:07;;;;;;;30.95;20.60;;;;;;;9.20;100.00;102151.56;5094816;28;20016;-48
2023/06/01 01:34:34;;;;;;;31.42;21.70;;;;;;;9.15;100.00;102159.03;5093804;28;20110;-45
2023/06/01 01:37:01;;;;;;;36.13;22.42;;;;;;;9.10;100.00;102159.56;5094497;28;20368;-47
2023/06/01 01:39:26;;;;;;;29.73;21.65;;;;;;;9.04;100.00;102158.41;5094286;28;20028;-46
2023/06/01 01:41:51;;;;;;;31.52;21.45;;;;;;;9.01;100.00;102159.94;5093892;28;20094;-45
2023/06/01 01:44:17;;;;;;;31.50;21.40;;;;;;;8.97;100.00;102155.41;5094146;28;20376;-47
2023/06/01 01:47:15;;;;;;;29.23;23.05;;;;;;;8.92;100.00;102169.69;5094589;28;20025;-46
2023/06/01 01:49:48;;;;;;;35.30;23.45;;;;;;;8.88;100.00;102158.34;5093902;28;20028;-47
2023/06/01 01:52:22;;;;;;;34.53;23.85;;;;;;;8.81;100.00;102157.09;5094031;28;20028;-49
2023/06/01 01:54:50;;;;;;;34.65;22.77;;;;;;;8.77;100.00;102159.44;5094373;28;20474;-46
2023/06/01 01:57:17;;;;;;;32.15;22.73;;;;;;;8.73;100.00;102172.09;5093352;28;20027;-45
2023/06/01 01:59:45;;;;;;;34.00;22.77;;;;;;;8.68;100.00;102164.91;5094238;28;20036;-46
2023/06/01 02:02:11;;;;;;;32.90;21.38;;;;;;;8.65;100.00;102164.72;5093761;28;20028;-48
2023/06/01 02:04:41;;;;;;;33.05;20.95;;;;;;;8.60;100.00;102168.69;5093563;28;20024;-49
2023/06/01 02:07:07;;;;;;;31.65;20.60;;;;;;;8.54;100.00;102167.53;5094136;28;20028;-47
2023/06/01 02:09:32;;;;;;;30.80;21.75;;;;;;;8.51;100.00;102164.78;5093290;28;20024;-46
2023/06/01 02:11:58;;;;;;;32.53;21.63;;;;;;;8.54;100.00;102167.53;5093823;28;20072;-44
2023/06/01 02:14:23;;;;;;;29.02;19.60;;;;;;;8.59;100.00;102169.50;5093630;28;20028;-47
2023/06/01 02:16:48;;;;;;;30.08;20.13;;;;;;;8.66;100.00;102161.34;5093284;28;20054;-45
2023/06/01 02:19:15;;;;;;;30.13;21.15;;;;;;;8.72;100.00;102161.72;5093419;28;20048;-48
2023/06/01 02:21:42;;;;;;;28.92;19.88;;;;;;;8.77;100.00;102160.31;5093326;28;20024;-44
2023/06/01 02:24:08;;;;;;;27.73;19.87;;;;;;;8.81;100.00;102157.09;5093350;28;20024;-48
2023/06/01 02:26:34;;;;;;;29.27;19.60;;;;;;;8.82;100.00;102156.31;5093194;28;20019;-47
2023/06/01 02:29:02;;;;;;;25.33;17.80;;;;;;;8.84;100.00;102158.97;5093714;28;20028;-45
2023/06/01 02:31:27;;;;;;;27.27;17.10;;;;;;;8.87;100.00;102157.47;5092742;28;20098;-45
2023/06/01 02:33:52;;;;;;;27.02;18.20;;;;;;;8.88;100.00;102156.66;5093448;28;20115;-47
2023/06/01 02:36:18;;;;;;;25.50;16.52;;;;;;;8.86;100.00;102145.41;5093330;28;20129;-49
2023/06/01 02:38:43;;;;;;;29.00;16.52;;;;;;;8.89;100.00;102153.28;5093063;28;20376;-44
2023/06/01 02:41:08;;;;;;;23.70;16.42;;;;;;;8.90;100.00;102151.59;5093140;28;20028;-49
2023/06/01 02:43:37;;;;;;;25.90;17.02;;;;;;;8.88;100.00;102156.66;5093213;28;20024;-45
2023/06/01 02:46:03;;;;;;;24.27;16.45;;;;;;;8.87;100.00;102157.47;5092765;28;20016;-49
2023/06/01 02:48:28;;;;;;;25.42;16.75;;;;;;;8.86;100.00;102150.53;5092708;28;20429;-49
2023/06/01 02:50:54;;;;;;;22.40;15.57;;;;;;;8.89;100.00;102149.84;5093512;28;20111;-49
2023/06/01 02:53:20;;;;;;;25.92;16.60;;;;;;;8.89;100.00;102158.41;5092357;28;20032;-49
2023/06/01 02:55:46;;;;;;;21.08;15.70;;;;;;;8.87;100.00;102157.47;5093299;28;20383;-49
2023/06/01 02:58:16;;;;;;;22.50;15.07;;;;;;;8.89;100.00;102155.84;5093294;28;20024;-46
2023/06/01 03:00:42;;;;;;;18.35;14.18;;;;;;;8.90;100.00;102170.47;5092366;28;20471;-47
2023/06/01 03:03:07;;;;;;;24.52;15.15;;;;;;;8.90;100.00;102167.91;5093107;28;20490;-49
2023/06/01 03:05:33;;;;;;;21.35;13.85;;;;;;;8.90;100.00;102167.91;5092451;28;20043;-45
2023/06/01 03:07:58;;;;;;;22.83;14.80;;;;;;;8.94;100.00;102160.41;5092896;28;20425;-48
2023/06/01 03:10:24;;;;;;;23.02;14.18;;;;;;;8.97;100.00;102151.16;5092810;28;20020;-48
2023/06/01 03:12:49;;;;;;;21.75;13.95;;;;;;;9.02;100.00;102156.56;5092618;28;20032;-49
2023/06/01 03:15:15;;;;;;;16.73;12.77;;;;;;;9.04;100.00;102162.69;5092598;28;20106;-45
2023/06/01 03:17:40;;;;;;;17.92;13.95;;;;;;;9.03;100.00;102158.34;5093127;28;20533;-46
2023/06/01 03:20:14;;;;;;;19.50;13.57;;;;;;;9.04;100.00;102160.13;5092195;28;20048;-45
2023/06/01 03:22:46;;;;;;;20.40;13.45;;;;;;;9.04;100.00;102160.13;5092499;28;20059;-46
2023/06/01 03:25:12;;;;;;;19.65;13.85;;;;;;;9.05;100.00;102162.78;5092844;28;20032;-47
2023/06/01 03:27:41;;;;;;;21.17;13.63;;;;;;;9.03;100.00;102159.22;5092096;28;20032;-48
2023/06/01 03:30:11;;;;;;;23.40;13.40;;;;;;;9.02;100.00;102159.13;5092402;28;20368;-45
2023/06/01 03:32:37;;;;;;;18.70;12.65;;;;;;;9.04;100.00;102155.84;5093862;28;20404;-44
2023/06/01 03:35:07;;;;;;;18.02;13.05;;;;;;;9.05;100.00;102159.28;5096453;28;20024;-48
2023/06/01 03:37:35;;;;;;;18.88;13.63;;;;;;;9.06;100.00;102163.66;5096439;28;20399;-50
2023/06/01 03:40:01;;;;;;;17.98;13.60;;;;;;;9.08;100.00;102156.91;5096922;28;20024;-46
2023/06/01 03:42:26;;;;;;;20.55;13.35;;;;;;;9.10;100.00;102154.44;5095660;28;20150;-48
2023/06/01 03:44:52;;;;;;;20.33;12.48;;;;;;;9.12;100.00;102153.72;5096969;28;20490;-50
2023/06/01 03:47:17;;;;;;;18.27;12.82;;;;;;;9.13;100.00;102159.72;5096575;28;20031;-48
2023/06/01 03:49:42;;;;;;;17.63;12.15;;;;;;;9.16;100.00;102154.78;5096082;28;20036;-46
2023/06/01 03:52:08;;;;;;;21.65;12.10;;;;;;;9.19;100.00;102160.09;5096890;28;20035;-49
2023/06/01 03:54:34;;;;;;;17.63;12.10;;;;;;;9.20;100.00;102164.44;5096059;28;20021;-46
2023/06/01 03:56:59;;;;;;;17.63;11.73;;;;;;;9.20;100.00;102161.84;5096237;28;20030;-45
2023/06/01 03:59:25;;;;;;;19.67;12.32;;;;;;;9.22;100.00;102161.16;5096143;28;20020;-47
2023/06/01 04:01:51;;;;;;;16.42;11.75;;;;;;;9.22;100.00;102166.28;5096013;28;20108;-47
2023/06/01 04:04:18;;;;;;;21.70;12.70;;;;;;;9.20;100.00;102170.44;5096057;28;20024;-47
2023/06/01 04:06:45;;;;;;;16.50;11.35;;;;;;;9.22;100.00;102168.00;5096503;28;20032;-45
2023/06/01 04:09:11;;;;;;;16.58;11.38;;;;;;;9.25;100.00;102155.28;5095769;28;20058;-49
2023/06/01 04:11:38;;;;;;;19.38;12.10;;;;;;;9.26;100.00;102163.88;5095703;28;20098;-45
2023/06/01 04:14:04;;;;;;;20.38;11.90;;;;;;;9.23;100.00;102162.94;5096332;28;20036;-49
2023/06/01 04:16:30;;;;;;;17.77;12.05;;;;;;;9.22;100.00;102168.88;5095496;28;20020;-47
2023/06/01 04:18:56;;;;;;;18.63;12.57;;;;;;;9.22;100.00;102166.28;5095739;28;20044;-48
2023/06/01 04:21:22;;;;;;;18.13;12.18;;;;;;;9.19;100.00;102160.09;5095990;28;20111;-48
2023/06/01 04:23:47;;;;;;;20.77;12.63;;;;;;;9.23;100.00;102157.78;5095494;28;20548;-47
2023/06/01 04:26:12;;;;;;;16.95;11.80;;;;;;;9.25;100.00;102159.56;5095665;28;20028;-45
2023/06/01 04:28:43;;;;;;;18.23;12.13;;;;;;;9.29;100.00;102167.50;5095826;28;20028;-49
2023/06/01 04:31:16;;;;;;;21.30;13.50;;;;;;;9.34;100.00;102175.50;5095450;28;20053;-48
2023/06/01 04:33:42;;;;;;;18.27;12.95;;;;;;;9.34;100.00;102180.66;5095754;28;20031;-48
2023/06/01 04:36:09;;;;;;;16.20;12.00;;;;;;;9.34;100.00;102175.50;5095920;28;20138;-49
2023/06/01 04:38:35;;;;;;;18.98;12.65;;;;;;;9.36;100.00;102172.22;5094650;28;20352;-49
2023/06/01 04:41:00;;;;;;;17.63;12.85;;;;;;;9.41;100.00;102176.72;5095870;28;20024;-48
2023/06/01 04:43:27;;;;;;;17.98;12.82;;;;;;;9.46;100.00;102178.75;5095408;28;20046;-48
2023/06/01 04:45:52;;;;;;;19.73;13.35;;;;;;;9.55;100.00;102184.44;5094518;28;20024;-48
2023/06/01 04:48:18;;;;;;;18.38;12.63;;;;;;;9.60;100.00;102181.22;5095316;28;20046;-49
2023/06/01 04:50:44;;;;;;;17.83;12.82;;;;;;;9.60;100.00;102182.09;5095515;28;20072;-48
2023/06/01 04:53:09;;;;;;;22.05;13.02;;;;;;;9.59;100.00;102187.16;5094519;28;20031;-48
2023/06/01 04:55:35;;;;;;;19.05;12.95;;;;;;;9.57;100.00;102189.66;5095374;28;20027;-48
2023/06/01 04:58:00;;;;;;;20.58;13.05;;;;;;;9.58;100.00;102187.94;5094973;28;20043;-49
2023/06/01 05:00:25;;;;;;;21.42;14.88;;;;;;;9.56;100.00;102183.59;5094893;28;20028;-49
2023/06/01 05:02:50;;;;;;;17.13;13.55;;;;;;;9.60;100.00;102183.78;5095397;28;20020;-50
2023/06/01 05:05:16;;;;;;;22.83;14.40;;;;;;;9.60;100.00;102176.94;5094500;28;20388;-49
2023/06/01 05:07:42;;;;;;;17.50;13.77;;;;;;;9.62;100.00;102177.03;5094930;28;20387;-48
2023/06/01 05:10:12;;;;;;;19.27;13.52;;;;;;;9.64;100.00;102171.16;5095110;28;20020;-48
2023/06/01 05:12:37;;;;;;;21.33;14.70;;;;;;;9.66;100.00;102166.13;5094186;28;20439;-49
2023/06/01 05:15:05;;;;;;;20.52;13.98;;;;;;;9.69;100.00;102169.72;5094923;28;20059;-48
2023/06/01 05:17:30;;;;;;;20.00;13.77;;;;;;;9.74;100.00;102172.56;5094531;28;20036;-48
2023/06/01 05:19:57;;;;;;;17.98;13.38;;;;;;;9.77;100.00;102172.72;5094272;28;20055;-48
2023/06/01 05:22:22;;;;;;;20.85;14.10;;;;;;;9.84;100.00;102172.25;5094224;28;20463;-50
2023/06/01 05:24:48;;;;;;;21.77;15.13;;;;;;;9.78;100.00;102177.06;5095489;28;20115;-48
2023/06/01 05:27:14;;;;;;;23.35;14.60;;;;;;;9.76;100.00;102170.97;5094451;28;20040;-49
2023/06/01 05:29:39;;;;;;;21.02;13.65;;;;;;;9.71;100.00;102167.25;5094185;28;20073;-46
2023/06/01 05:32:05;;;;;;;17.75;13.63;;;;;;;9.59;100.00;102177.75;5094788;28;20031;-47
2023/06/01 05:34:30;;;;;;;22.30;14.40;;;;;;;9.54;100.00;102174.03;5093816;28;20064;-46
2023/06/01 05:36:56;;;;;;;21.60;14.30;;;;;;;9.47;100.00;102174.50;5094203;28;20111;-48
2023/06/01 05:39:27;;;;;;;19.38;13.07;;;;;;;9.42;100.00;102173.38;5094176;28;20032;-49
2023/06/01 05:41:53;;;;;;;22.85;14.23;;;;;;;9.37;100.00;102176.56;5094048;28;20062;-49
2023/06/01 05:44:18;;;;;;;20.00;13.73;;;;;;;9.40;100.00;102175.84;5094100;28;20382;-46
2023/06/01 05:46:44;;;;;;;18.83;13.63;;;;;;;9.51;100.00;102177.31;5094371;28;20115;-49
2023/06/01 05:49:09;;;;;;;18.63;13.60;;;;;;;9.65;100.00;102169.47;5093629;28;20495;-49
2023/06/01 05:51:37;;;;;;;19.10;13.60;;;;;;;9.73;100.00;102181.06;5094071;28;20028;-48
2023/06/01 05:54:03;;;;;;;19.98;13.18;;;;;;;9.88;100.00;102173.31;5094373;28;20023;-47
2023/06/01 05:56:29;;;;;;;21.10;13.60;;;;;;;10.30;100.00;102172.91;5092464;28;20070;-49
2023/06/01 05:58:54;;;;;;;19.67;13.65;;;;;;;10.45;100.00;102171.16;5094276;28;20017;-49
2023/06/01 06:01:19;;;;;;;17.27;13.15;;;;;;;10.64;100.00;102177.25;5093254;28;20081;-45
2023/06/01 06:03:45;;;;;;;22.33;13.55;;;;;;;10.84;100.00;102176.53;5093996;28;20078;-49
2023/06/01 06:06:10;;;;;;;21.65;13.05;;;;;;;10.98;100.00;102184.97;5094001;28;20024;-47
2023/06/01 06:08:35;;;;;;;21.10;13.60;;;;;;;11.15;100.00;102178.06;5093259;28;20020;-49
2023/06/01 06:11:01;;;;;;;25.80;13.45;;;;;;;11.39;100.00;102179.16;5093890;28;20031;-45
2023/06/01 06:13:26;;;;;;;19.80;13.02;;;;;;;11.76;100.00;102176.63;5093567;28;20549;-49
2023/06/01 06:15:51;;;;;;;21.83;12.25;;;;;;;11.86;99.46;102175.34;5093464;28;20023;-50
2023/06/01 06:18:19;;;;;;;19.30;12.15;;;;;;;11.83;97.36;102181.25;5093332;28;20439;-49
2023/06/01 06:20:44;;;;;;;18.08;11.90;;;;;;;11.78;96.82;102180.16;5093689;28;20495;-48
2023/06/01 06:23:10;;;;;;;19.35;12.30;;;;;;;11.70;96.44;102184.09;5093481;28;20057;-48
2023/06/01 06:25:36;;;;;;;18.65;11.55;;;;;;;11.48;96.20;102184.78;5093368;28;20028;-49
2023/06/01 06:28:02;;;;;;;17.88;11.82;;;;;;;11.19;96.47;102190.31;5093827;28;20100;-49
2023/06/01 06:30:28;;;;;;;18.17;12.68;;;;;;;11.05;98.42;102193.91;5092846;28;20102;-47
2023/06/01 06:32:53;;;;;;;17.77;12.48;;;;;;;10.92;99.11;102187.25;5093007;28;20062;-50
2023/06/01 06:35:18;;;;;;;19.88;12.20;;;;;;;10.70;98.08;102186.19;5092948;28;20073;-49
2023/06/01 06:37:44;;;;;;;18.92;13.00;;;;;;;10.57;99.67;102188.94;5093137;28;20024;-48
2023/06/01 06:40:10;;;;;;;18.00;13.05;;;;;;;10.62;100.00;102178.88;5093326;28;20386;-48
2023/06/01 06:42:35;;;;;;;19.00;12.98;;;;;;;10.66;100.00;102178.22;5092999;28;20024;-48
2023/06/01 06:45:01;;;;;;;19.33;13.15;;;;;;;10.80;100.00;102184.06;5092730;28;20024;-50
2023/06/01 06:47:26;;;;;;;22.85;13.63;;;;;;;11.00;100.00;102187.63;5093084;28;20020;-48
2023/06/01 06:49:52;;;;;;;18.45;12.75;;;;;;;11.19;100.00;102189.41;5093255;28;20028;-45
2023/06/01 06:52:17;;;;;;;17.40;12.88;;;;;;;11.31;98.42;102194.28;5092407;28;20020;-49
2023/06/01 06:54:43;;;;;;;19.92;12.98;;;;;;;11.58;98.87;102194.75;5093058;28;20100;-49
2023/06/01 06:57:09;;;;;;;19.98;12.23;;;;;;;11.66;95.54;102195.09;5093431;28;20048;-49
2023/06/01 06:59:35;;;;;;;17.50;11.90;;;;;;;11.96;97.94;102181.84;5092117;28;20103;-49
2023/06/01 07:02:00;;;;;;;19.85;12.25;;;;;;;11.93;94.92;102195.50;5093206;28;20031;-44
2023/06/01 07:04:28;;;;;;;19.00;11.60;;;;;;;12.14;95.75;102192.13;5092643;28;20024;-47
2023/06/01 07:06:53;;;;;;;20.85;11.95;;;;;;;12.27;94.42;102194.44;5092475;28;20479;-49
2023/06/01 07:09:18;;;;;;;20.15;12.18;;;;;;;12.30;92.68;102196.28;5092877;28;20025;-49
2023/06/01 07:11:44;;;;;;;20.13;12.98;;;;;;;12.48;94.25;102197.06;5092590;28;20165;-48
2023/06/01 07:14:10;;;;;;;17.73;12.15;;;;;;;12.72;94.59;102195.47;5092661;28;20047;-47
2023/06/01 07:16:35;;;;;;;20.05;12.15;;;;;;;13.08;95.13;102185.78;5092603;28;20028;-46
2023/06/01 07:19:01;;;;;;;19.15;11.63;;;;;;;13.14;90.37;102178.28;5092152;28;20102;-47
2023/06/01 07:21:26;;;;;;;17.77;12.00;;;;;;;13.17;89.52;102183.56;5092443;28;20051;-46
2023/06/01 07:23:51;;;;;;;16.42;11.45;;;;;;;13.29;90.44;102180.56;5092928;28;20036;-49
2023/06/01 07:26:17;;;;;;;17.75;11.23;;;;;;;13.14;86.83;102188.63;5092122;28;20472;-49
2023/06/01 07:28:42;;;;;;;18.15;11.05;;;;;;;13.07;87.48;102185.72;5092676;28;20430;-49
2023/06/01 07:31:08;;;;;;;19.38;11.27;;;;;;;12.79;86.98;102188.03;5092812;28;20024;-50
2023/06/01 07:33:35;;;;;;;19.65;11.10;;;;;;;12.69;88.25;102193.63;5091909;28;20078;-49
2023/06/01 07:36:01;;;;;;;19.75;11.70;;;;;;;12.66;88.80;102188.34;5092558;28;20051;-49
2023/06/01 07:38:26;;;;;;;16.77;11.25;;;;;;;12.74;91.22;102184.38;5092524;28;20162;-45
2023/06/01 07:40:52;;;;;;;16.42;11.57;;;;;;;12.69;88.95;102183.28;5092299;28;20020;-48
2023/06/01 07:43:17;;;;;;;19.13;10.93;;;;;;;12.65;87.72;102187.47;5092229;28;20386;-49
2023/06/01 07:45:42;;;;;;;18.63;11.23;;;;;;;12.88;89.82;102186.66;5092840;28;20017;-49
2023/06/01 07:48:08;;;;;;;17.67;11.38;;;;;;;12.93;88.31;102174.81;5091949;28;20539;-50
2023/06/01 07:50:33;;;;;;;18.25;11.45;;;;;;;13.03;88.59;102182.13;5092476;28;20426;-49
2023/06/01 07:52:58;;;;;;;18.92;11.88;;;;;;;13.15;87.81;102182.59;5092787;28;20133;-50
2023/06/01 07:55:24;;;;;;;17.23;11.73;;;;;;;13.14;86.96;102188.63;5091572;28;20032;-50
2023/06/01 07:57:49;;;;;;;18.25;11.07;;;;;;;13.25;86.63;102185.59;5092538;28;20020;-51
2023/06/01 08:00:17;;;;;;;18.85;11.57;;;;;;;13.27;86.43;102183.94;5092722;28;20035;-48
2023/06/01 08:02:43;;;;;;;16.00;11.65;;;;;;;13.37;86.61;102180.91;5091755;28;20025;-48
2023/06/01 08:05:10;;;;;;;17.60;11.77;;;;;;;13.21;84.76;102183.69;5092616;28;20031;-49
2023/06/01 08:07:37;;;;;;;23.98;12.55;;;;;;;13.25;86.12;102189.06;5092461;28;20532;-51
2023/06/01 08:10:05;;;;;;;17.08;11.82;;;;;;;13.38;86.84;102181.81;5091834;28;20024;-47
2023/06/01 08:12:31;;;;;;;20.80;12.10;;;;;;;13.51;85.94;102184.06;5091992;28;20433;-51
2023/06/01 08:14:57;;;;;;;21.15;11.68;;;;;;;13.56;84.55;102190.28;5091678;28;20541;-48
2023/06/01 08:17:23;;;;;;;19.10;12.52;;;;;;;13.73;85.56;102188.34;5091933;28;20028;-50
2023/06/01 08:19:48;;;;;;;17.23;12.15;;;;;;;14.02;86.08;102178.22;5093678;28;20052;-49
2023/06/01 08:22:13;;;;;;;19.63;12.80;;;;;;;13.98;83.03;102176.31;5095471;28;20036;-49
2023/06/01 08:24:38;;;;;;;17.33;11.75;;;;;;;13.99;83.16;102178.06;5095616;28;20028;-49
2023/06/01 08:27:21;;;;;;;18.00;12.07;;;;;;;14.12;83.76;102180.28;5096079;28;20073;-48
2023/06/01 08:29:48;;;;;;;18.65;11.27;;;;;;;14.31;83.85;102184.44;5095287;28;20476;-48
2023/06/01 08:32:14;;;;;;;16.30;11.88;;;;;;;14.40;82.01;102178.69;5095571;28;20070;-49
2023/06/01 08:34:40;;;;;;;19.23;12.55;;;;;;;14.51;82.42;102168.66;5095606;28;20024;-51
2023/06/01 08:37:05;;;;;;;22.35;12.30;;;;;;;14.63;82.36;102173.44;5095232;28;20039;-47
2023/06/01 08:39:30;;;;;;;21.85;12.38;;;;;;;14.61;79.46;102175.06;5095463;28;20422;-47
2023/06/01 08:42:18;;;;;;;20.45;12.70;;;;;;;14.77;82.10;102177.41;5095688;28;20028;-49
2023/06/01 08:44:43;;;;;;;18.48;12.18;;;;;;;14.87;79.15;102173.38;5095144;28;20055;-50
2023/06/01 08:47:09;;;;;;;17.38;12.27;;;;;;;15.18;80.29;102170.91;5095829;28;20047;-50
2023/06/01 08:49:36;;;;;;;19.08;12.18;;;;;;;15.07;77.12;102171.44;5095446;28;20024;-49
2023/06/01 08:52:13;;;;;;;20.38;12.65;;;;;;;15.12;78.51;102166.41;5094893;28;20184;-50
2023/06/01 08:54:38;;;;;;;19.50;11.77;;;;;;;15.20;75.88;102172.72;5095373;28;20028;-48
2023/06/01 08:57:07;;;;;;;16.92;11.90;;;;;;;15.27;77.55;102159.09;5094791;28;20269;-51
2023/06/01 08:59:34;;;;;;;21.70;11.73;;;;;;;15.42;77.37;102163.88;5095032;28;20031;-50
2023/06/01 09:02:00;;;;;;;21.70;12.23;;;;;;;15.46;75.54;102160.53;5095539;28;20054;-49
2023/06/01 09:04:26;;;;;;;20.60;11.07;;;;;;;15.79;77.89;102156.31;5094661;28;20115;-50
2023/06/01 09:06:52;;;;;;;18.08;11.60;;;;;;;15.89;76.19;102152.28;5095238;28;20099;-49
2023/06/01 09:09:17;;;;;;;20.73;12.40;;;;;;;15.98;75.45;102142.13;5095118;28;20120;-50
2023/06/01 09:11:44;;;;;;;18.55;11.88;;;;;;;16.02;74.02;102151.78;5094812;28;20429;-49
2023/06/01 09:14:23;;;;;;;18.38;11.98;;;;;;;15.99;75.25;102154.31;5094969;28;20074;-50
2023/06/01 09:16:49;;;;;;;21.40;12.75;;;;;;;15.95;73.03;102140.31;5095119;28;20032;-50
2023/06/01 09:19:15;;;;;;;18.15;11.90;;;;;;;16.17;73.56;102140.06;5093986;28;20388;-49
2023/06/01 09:21:55;;;;;;;17.48;11.30;;;;;;;16.45;73.69;102142.53;5094972;28;20024;-49
2023/06/01 09:24:22;;;;;;;18.30;11.57;;;;;;;16.60;70.56;102136.88;5094764;28;20028;-49
2023/06/01 09:26:48;;;;;;;17.58;11.57;;;;;;;16.70;71.10;102137.09;5094336;28;20020;-49
2023/06/01 09:29:13;;;;;;;17.92;12.25;;;;;;;16.72;68.00;102138.88;5094954;28;20116;-49
2023/06/01 09:31:40;;;;;;;17.70;11.52;;;;;;;16.86;67.66;102130.53;5094428;28;20111;-47
2023/06/01 09:34:07;;;;;;;18.85;11.95;;;;;;;17.07;69.21;102132.81;5093860;28;20463;-46
2023/06/01 09:36:34;;;;;;;18.00;11.77;;;;;;;17.22;67.14;102132.25;5094233;28;20361;-48
2023/06/01 09:39:00;;;;;;;16.23;11.80;;;;;;;17.43;69.12;102127.53;5094887;28;20020;-50
2023/06/01 09:41:26;;;;;;;18.90;11.60;;;;;;;17.52;65.16;102125.97;5093719;28;20024;-47
2023/06/01 09:43:52;;;;;;;19.40;12.15;;;;;;;17.54;63.34;102124.28;5094559;28;20371;-49
2023/06/01 09:46:18;;;;;;;19.85;11.43;;;;;;;17.89;64.13;102124.13;5093599;28;20024;-50
2023/06/01 09:48:44;;;;;;;21.02;11.07;;;;;;;18.00;62.71;102114.81;5094269;28;20034;-50
2023/06/01 09:51:28;;;;;;;15.43;10.93;;;;;;;18.18;62.39;102126.44;5094293;28;20042;-49
2023/06/01 09:53:54;;;;;;;16.63;11.45;;;;;;;18.31;60.54;102125.81;5093943;28;20039;-49
2023/06/01 09:56:20;;;;;;;18.40;11.40;;;;;;;18.36;63.09;102132.00;5093918;28;20028;-50
2023/06/01 09:58:45;;;;;;;16.05;11.13;;;;;;;18.34;59.44;102118.03;5094183;28;20356;-50
2023/06/01 10:01:15;;;;;;;16.42;11.27;;;;;;;18.30;58.64;102124.06;5093703;28;20024;-50
2023/06/01 10:03:42;;;;;;;17.00;11.13;;;;;;;18.71;58.00;102116.06;5094172;28;20062;-48
2023/06/01 10:06:10;;;;;;;18.17;11.77;;;;;;;18.95;57.32;102125.16;5094317;28;20070;-49
2023/06/01 10:08:36;;;;;;;15.77;10.75;;;;;;;19.63;54.26;102112.16;5093227;28;20036;-48
2023/06/01 10:11:01;;;;;;;16.23;10.82;;;;;;;20.09;53.46;102117.03;5093924;28;20077;-50
2023/06/01 10:13:28;;;;;;;17.45;11.15;;;;;;;20.55;51.31;102109.59;5093573;28;20016;-50
2023/06/01 10:15:54;;;;;;;17.58;11.40;;;;;;;20.95;50.34;102116.94;5093277;28;20040;-48
2023/06/01 10:18:21;;;;;;;18.02;11.07;;;;;;;21.24;48.80;102109.25;5093383;28;20028;-46
2023/06/01 10:20:46;;;;;;;16.00;12.20;;;;;;;21.89;47.69;102116.53;5093716;28;20539;-49
2023/06/01 10:23:11;;;;;;;16.83;11.00;;;;;;;22.64;44.14;102119.25;5093104;28;20111;-48
2023/06/01 10:25:43;;;;;;;18.38;10.60;;;;;;;23.39;43.44;102108.63;5093417;28;20028;-49
2023/06/01 10:28:11;;;;;;;20.35;10.90;;;;;;;23.89;40.51;102110.13;5093892;28;20024;-49
2023/06/01 10:30:36;;;;;;;17.15;11.23;;;;;;;24.01;39.23;102101.31;5092681;28;20032;-48
2023/06/01 10:33:02;;;;;;;20.95;11.45;;;;;;;24.44;40.38;102108.91;5093516;28;20032;-49
2023/06/01 10:35:27;;;;;;;17.38;11.02;;;;;;;24.64;38.90;102106.09;5092717;28;20031;-45
2023/06/01 10:38:14;;;;;;;15.83;10.97;;;;;;;24.34;40.04;102107.22;5092972;28;20020;-49
2023/06/01 10:40:41;;;;;;;18.63;10.73;;;;;;;25.21;38.12;102102.00;5093283;28;20093;-48
2023/06/01 10:43:08;;;;;;;16.20;10.60;;;;;;;25.42;37.93;102115.88;5092191;28;20016;-50
2023/06/01 10:45:33;;;;;;;;;;;;;;;25.99;42.14;102116.88;5093545;28;20085;-51
2023/06/01 10:47:59;;;;;;;15.50;10.73;;;;;;;25.55;36.84;102112.19;5093472;28;19916;-48
2023/06/01 10:50:24;;;;;;;16.02;10.18;;;;;;;25.76;35.75;102113.66;5092399;28;20380;-48
2023/06/01 10:52:51;;;;;;;17.85;10.93;;;;;;;25.61;35.25;102111.22;5093364;28;20061;-47
2023/06/01 10:55:16;;;;;;;14.75;10.35;;;;;;;25.66;36.28;102108.53;5092909;28;20028;-48
2023/06/01 10:57:45;;;;;;;13.90;9.83;;;;;;;25.80;35.32;102117.13;5092370;28;20020;-50
2023/06/01 11:00:27;;;;;;;15.40;10.45;;;;;;;26.59;34.95;102108.00;5093306;28;20063;-49
2023/06/01 11:02:59;;;;;;;16.25;10.45;;;;;;;26.97;35.00;102102.94;5093099;28;20456;-49
2023/06/01 11:05:50;;;;;;;14.85;10.50;;;;;;;27.20;36.20;102100.69;5092068;28;20028;-48
2023/06/01 11:08:21;;;;;;;16.45;10.48;;;;;;;27.16;34.63;102103.44;5092853;28;20089;-46